Time,TemperatureF,DewpointF,PressureIn,WindDirection,WindDirectionDegrees,WindSpeedMPH,WindSpeedGustMPH,Humidity,HourlyPrecipIn,Conditions,Clouds,dailyrainin,SolarRadiationWatts/m^2,SoftwareType,DateUTC
2013-06-26 00:02:00,61.0,-99.9,-100.00,South,184,3.0,8.0,0,0.00,,,0.00,0.000000,,2013-06-26 07:02:00,
2013-06-26 00:33:00,58.0,-99.9,-100.00,South,191,3.0,6.0,0,0.00,,,0.00,0.000000,,2013-06-26 07:33:00,
2013-06-26 00:43:00,58.0,-99.9,-100.00,South,191,3.0,6.0,0,0.00,,,0.00,0.000000,,2013-06-26 07:43:00,
2013-06-26 00:53:00,58.0,-99.9,-100.00,South,191,3.0,6.0,0,0.00,,,0.00,0.000000,,2013-06-26 07:53:00,
2013-06-26 01:02:00,58.0,-99.9,-100.00,South,191,3.0,6.0,0,0.00,,,0.00,0.000000,,2013-06-26 08:02:00,
2013-06-26 01:34:00,58.0,-99.9,-100.00,SSW,193,1.0,7.0,0,0.00,,,0.00,0.000000,,2013-06-26 08:34:00,
2013-06-26 01:43:00,58.0,-99.9,-100.00,SSW,193,1.0,7.0,0,0.00,,,0.00,0.000000,,2013-06-26 08:43:00,
2013-06-26 01:53:00,58.0,-99.9,-100.00,SSW,193,1.0,7.0,0,0.00,,,0.00,0.000000,,2013-06-26 08:53:00,
2013-06-26 02:01:00,58.0,-99.9,-100.00,SSW,193,1.0,7.0,0,0.00,,,0.00,0.000000,,2013-06-26 09:01:00,
2013-06-26 02:33:00,53.0,-99.9,-100.00,SSW,202,1.0,6.0,0,0.00,,,-99.99,0.000000,,2013-06-26 09:33:00,
2013-06-26 02:43:00,53.0,-99.9,-100.00,SSW,202,1.0,6.0,0,0.00,,,-99.99,0.000000,,2013-06-26 09:43:00,
2013-06-26 02:53:00,53.0,-99.9,-100.00,SSW,202,1.0,6.0,0,0.00,,,-99.99,0.000000,,2013-06-26 09:53:00,
2013-06-26 03:01:00,53.0,-99.9,-100.00,SSW,202,1.0,6.0,0,0.00,,,-99.99,0.000000,,2013-06-26 10:01:00,
2013-06-26 03:22:00,51.0,-99.9,-100.00,SSW,201,0.0,6.0,0,0.00,,,0.00,0.000000,,2013-06-26 10:22:00,
2013-06-26 03:34:00,51.0,-99.9,-100.00,SSW,201,0.0,6.0,0,0.00,,,0.00,0.000000,,2013-06-26 10:34:00,
2013-06-26 03:43:00,51.0,-99.9,-100.00,SSW,201,0.0,6.0,0,0.00,,,0.00,0.000000,,2013-06-26 10:43:00,
2013-06-26 03:53:00,51.0,-99.9,-100.00,SSW,201,0.0,6.0,0,0.00,,,0.00,0.000000,,2013-06-26 10:53:00,
2013-06-26 04:02:00,51.0,-99.9,-100.00,SSW,201,0.0,6.0,0,0.00,,,0.00,0.000000,,2013-06-26 11:02:00,
2013-06-26 04:23:00,48.0,-99.9,-100.00,South,179,0.0,5.0,0,0.00,,,0.00,0.000000,,2013-06-26 11:23:00,
2013-06-26 04:33:00,48.0,-99.9,-100.00,South,179,0.0,5.0,0,0.00,,,0.00,0.000000,,2013-06-26 11:33:00,
2013-06-26 04:44:00,48.0,-99.9,-100.00,South,179,0.0,5.0,0,0.00,,,0.00,0.000000,,2013-06-26 11:44:00,
2013-06-26 04:52:00,48.0,-99.9,-100.00,South,179,0.0,5.0,0,0.00,,,0.00,0.000000,,2013-06-26 11:52:00,
2013-06-26 05:22:00,48.0,-99.9,-100.00,WSW,238,0.0,2.0,0,-99.99,,,0.00,0.000000,,2013-06-26 12:22:00,
2013-06-26 05:34:00,48.0,-99.9,-100.00,WSW,238,0.0,2.0,0,-99.99,,,0.00,0.000000,,2013-06-26 12:34:00,
2013-06-26 05:43:00,48.0,-99.9,-100.00,WSW,238,0.0,2.0,0,-99.99,,,0.00,0.000000,,2013-06-26 12:43:00,
2013-06-26 05:52:00,48.0,-99.9,-100.00,WSW,238,0.0,2.0,0,-99.99,,,0.00,0.000000,,2013-06-26 12:52:00,
2013-06-26 06:02:00,48.0,-99.9,-100.00,WSW,238,0.0,2.0,0,-99.99,,,0.00,0.000000,,2013-06-26 13:02:00,
2013-06-26 06:34:00,50.0,-99.9,-100.00,SSE,167,4.0,4.0,0,0.00,,,0.00,26.000000,,2013-06-26 13:34:00,
2013-06-26 06:43:00,50.0,-99.9,-100.00,SSE,167,4.0,4.0,0,0.00,,,0.00,26.000000,,2013-06-26 13:43:00,
2013-06-26 06:53:00,50.0,-99.9,-100.00,SSE,167,4.0,4.0,0,0.00,,,0.00,26.000000,,2013-06-26 13:53:00,
2013-06-26 07:02:00,50.0,-99.9,-100.00,SSE,167,4.0,4.0,0,0.00,,,0.00,26.000000,,2013-06-26 14:02:00,
2013-06-26 08:02:00,68.0,-99.9,-100.00,SSE,151,1.0,6.0,0,0.00,,,0.00,241.000000,,2013-06-26 15:02:00,
2013-06-26 09:34:00,77.0,-99.9,-100.00,North,358,6.0,15.0,0,-99.99,,,-99.99,684.000000,,2013-06-26 16:34:00,
2013-06-26 09:43:00,77.0,-99.9,-100.00,North,358,6.0,15.0,0,-99.99,,,-99.99,684.000000,,2013-06-26 16:43:00,
2013-06-26 09:52:00,77.0,-99.9,-100.00,North,358,6.0,15.0,0,-99.99,,,-99.99,684.000000,,2013-06-26 16:52:00,
2013-06-26 10:02:00,77.0,-99.9,-100.00,North,358,6.0,15.0,0,-99.99,,,-99.99,684.000000,,2013-06-26 17:02:00,
2013-06-26 10:33:00,79.0,-99.9,-100.00,ESE,114,5.0,17.0,0,0.00,,,0.00,874.000000,,2013-06-26 17:33:00,
2013-06-26 10:43:00,79.0,-99.9,-100.00,ESE,114,5.0,17.0,0,0.00,,,0.00,874.000000,,2013-06-26 17:43:00,
2013-06-26 10:52:00,79.0,-99.9,-100.00,ESE,114,5.0,17.0,0,0.00,,,0.00,874.000000,,2013-06-26 17:52:00,
2013-06-26 11:01:00,79.0,-99.9,-100.00,ESE,114,5.0,17.0,0,0.00,,,0.00,874.000000,,2013-06-26 18:01:00,
2013-06-26 11:34:00,81.0,-99.9,-100.00,ESE,105,5.0,15.0,0,0.00,,,0.00,1023.000000,,2013-06-26 18:34:00,
2013-06-26 11:43:00,81.0,-99.9,-100.00,ESE,105,5.0,15.0,0,0.00,,,0.00,1023.000000,,2013-06-26 18:43:00,
2013-06-26 11:52:00,81.0,-99.9,-100.00,ESE,105,5.0,15.0,0,0.00,,,0.00,1023.000000,,2013-06-26 18:52:00,
2013-06-26 12:02:00,81.0,-99.9,-100.00,ESE,105,5.0,15.0,0,0.00,,,0.00,1023.000000,,2013-06-26 19:02:00,
2013-06-26 12:33:00,83.0,-99.9,-100.00,North,10,5.0,16.0,0,0.00,,,0.00,1110.000000,,2013-06-26 19:33:00,
2013-06-26 12:43:00,83.0,-99.9,-100.00,North,10,5.0,16.0,0,0.00,,,0.00,1110.000000,,2013-06-26 19:43:00,
2013-06-26 12:52:00,83.0,-99.9,-100.00,North,10,5.0,16.0,0,0.00,,,0.00,1110.000000,,2013-06-26 19:52:00,
2013-06-26 13:02:00,83.0,-99.9,-100.00,North,10,5.0,16.0,0,0.00,,,0.00,1110.000000,,2013-06-26 20:02:00,
2013-06-26 13:34:00,83.0,-99.9,-100.00,NW,316,5.0,14.0,0,0.00,,,0.00,1132.000000,,2013-06-26 20:34:00,
2013-06-26 13:43:00,83.0,-99.9,-100.00,NW,316,5.0,14.0,0,0.00,,,0.00,1132.000000,,2013-06-26 20:43:00,
2013-06-26 13:53:00,83.0,-99.9,-100.00,NW,316,5.0,14.0,0,0.00,,,0.00,1132.000000,,2013-06-26 20:53:00,
2013-06-26 14:02:00,83.0,-99.9,-100.00,NW,316,5.0,14.0,0,0.00,,,0.00,1132.000000,,2013-06-26 21:02:00,
2013-06-26 14:23:00,84.0,-99.9,-100.00,ENE,72,6.0,15.0,0,0.00,,,0.00,1102.000000,,2013-06-26 21:23:00,
2013-06-26 14:33:00,84.0,-99.9,-100.00,ENE,72,6.0,15.0,0,0.00,,,0.00,1102.000000,,2013-06-26 21:33:00,
2013-06-26 14:43:00,84.0,-99.9,-100.00,ENE,72,6.0,15.0,0,0.00,,,0.00,1102.000000,,2013-06-26 21:43:00,
2013-06-26 14:52:00,84.0,-99.9,-100.00,ENE,72,6.0,15.0,0,0.00,,,0.00,1102.000000,,2013-06-26 21:52:00,
2013-06-26 15:01:00,84.0,-99.9,-100.00,ENE,72,6.0,15.0,0,0.00,,,0.00,1102.000000,,2013-06-26 22:01:00,
2013-06-26 15:34:00,85.0,-99.9,-100.00,South,191,4.0,16.0,0,0.00,,,0.00,1012.000000,,2013-06-26 22:34:00,
2013-06-26 15:43:00,85.0,-99.9,-100.00,South,191,4.0,16.0,0,0.00,,,0.00,1012.000000,,2013-06-26 22:43:00,
2013-06-26 15:52:00,85.0,-99.9,-100.00,South,191,4.0,16.0,0,0.00,,,0.00,1012.000000,,2013-06-26 22:52:00,
2013-06-26 16:02:00,85.0,-99.9,-100.00,South,191,4.0,16.0,0,0.00,,,0.00,1012.000000,,2013-06-26 23:02:00,
2013-06-26 16:22:00,86.0,-99.9,-100.00,SW,215,5.0,15.0,0,0.00,,,0.00,865.000000,,2013-06-26 23:22:00,
2013-06-26 16:34:00,86.0,-99.9,-100.00,SW,215,5.0,15.0,0,0.00,,,0.00,865.000000,,2013-06-26 23:34:00,
2013-06-26 16:43:00,86.0,-99.9,-100.00,SW,215,5.0,15.0,0,0.00,,,0.00,865.000000,,2013-06-26 23:43:00,
2013-06-26 16:53:00,86.0,-99.9,-100.00,SW,215,5.0,15.0,0,0.00,,,0.00,865.000000,,2013-06-26 23:53:00,
2013-06-26 17:01:00,86.0,-99.9,-100.00,SW,215,5.0,15.0,0,0.00,,,0.00,865.000000,,2013-06-27 00:01:00,
2013-06-26 17:34:00,84.0,-99.9,-100.00,NNE,30,5.0,13.0,0,0.00,,,0.00,672.000000,,2013-06-27 00:34:00,
2013-06-26 17:43:00,84.0,-99.9,-100.00,NNE,30,5.0,13.0,0,0.00,,,0.00,672.000000,,2013-06-27 00:43:00,
2013-06-26 17:53:00,84.0,-99.9,-100.00,NNE,30,5.0,13.0,0,0.00,,,0.00,672.000000,,2013-06-27 00:53:00,
2013-06-26 18:01:00,84.0,-99.9,-100.00,NNE,30,5.0,13.0,0,0.00,,,0.00,672.000000,,2013-06-27 01:01:00,
2013-06-26 18:22:00,81.0,-99.9,-100.00,NE,38,2.0,14.0,0,0.00,,,0.00,450.000000,,2013-06-27 01:22:00,
2013-06-26 18:32:00,81.0,-99.9,-100.00,NE,38,2.0,14.0,0,0.00,,,0.00,450.000000,,2013-06-27 01:32:00,
2013-06-26 18:43:00,81.0,-99.9,-100.00,NE,38,2.0,14.0,0,0.00,,,0.00,450.000000,,2013-06-27 01:43:00,
2013-06-26 18:53:00,81.0,-99.9,-100.00,NE,38,2.0,14.0,0,0.00,,,0.00,450.000000,,2013-06-27 01:53:00,
2013-06-26 19:01:00,81.0,-99.9,-100.00,NE,38,2.0,14.0,0,0.00,,,0.00,450.000000,,2013-06-27 02:01:00,
2013-06-26 19:22:00,78.0,-99.9,-100.00,NE,34,1.0,13.0,0,0.00,,,0.00,208.000000,,2013-06-27 02:22:00,
2013-06-26 19:32:00,78.0,-99.9,-100.00,NE,34,1.0,13.0,0,0.00,,,0.00,208.000000,,2013-06-27 02:32:00,
2013-06-26 19:43:00,78.0,-99.9,-100.00,NE,34,1.0,13.0,0,0.00,,,0.00,208.000000,,2013-06-27 02:43:00,
2013-06-26 19:52:00,78.0,-99.9,-100.00,NE,34,1.0,13.0,0,0.00,,,0.00,208.000000,,2013-06-27 02:52:00,
2013-06-26 20:02:00,78.0,-99.9,-100.00,NE,34,1.0,13.0,0,0.00,,,0.00,208.000000,,2013-06-27 03:02:00,
2013-06-26 20:22:00,70.0,-99.9,-100.00,South,184,0.0,9.0,0,0.00,,,0.00,9.000000,,2013-06-27 03:22:00,
2013-06-26 20:33:00,70.0,-99.9,-100.00,South,184,0.0,9.0,0,0.00,,,0.00,9.000000,,2013-06-27 03:33:00,
2013-06-26 20:42:00,70.0,-99.9,-100.00,South,184,0.0,9.0,0,0.00,,,0.00,9.000000,,2013-06-27 03:42:00,
2013-06-26 20:52:00,70.0,-99.9,-100.00,South,184,0.0,9.0,0,0.00,,,0.00,9.000000,,2013-06-27 03:52:00,
2013-06-26 21:01:00,70.0,-99.9,-100.00,South,184,0.0,9.0,0,0.00,,,0.00,9.000000,,2013-06-27 04:01:00,
2013-06-26 21:22:00,64.0,-99.9,-100.00,SSE,163,3.0,7.0,0,0.00,,,0.00,0.000000,,2013-06-27 04:22:00,
2013-06-26 21:33:00,64.0,-99.9,-100.00,SSE,163,3.0,7.0,0,0.00,,,0.00,0.000000,,2013-06-27 04:33:00,
2013-06-26 21:42:00,64.0,-99.9,-100.00,SSE,163,3.0,7.0,0,0.00,,,0.00,0.000000,,2013-06-27 04:42:00,
2013-06-26 21:53:00,64.0,-99.9,-100.00,SSE,163,3.0,7.0,0,0.00,,,0.00,0.000000,,2013-06-27 04:53:00,
2013-06-26 22:02:00,64.0,-99.9,-100.00,SSE,163,3.0,7.0,0,0.00,,,0.00,0.000000,,2013-06-27 05:02:00,
2013-06-26 22:22:00,64.0,-99.9,-100.00,South,182,3.0,5.0,0,0.00,,,-99.99,0.000000,,2013-06-27 05:22:00,
2013-06-26 22:33:00,64.0,-99.9,-100.00,South,182,3.0,5.0,0,0.00,,,-99.99,0.000000,,2013-06-27 05:33:00,
2013-06-26 22:42:00,64.0,-99.9,-100.00,South,182,3.0,5.0,0,0.00,,,-99.99,0.000000,,2013-06-27 05:42:00,
2013-06-26 22:53:00,64.0,-99.9,-100.00,South,182,3.0,5.0,0,0.00,,,-99.99,0.000000,,2013-06-27 05:53:00,
2013-06-26 23:02:00,64.0,-99.9,-100.00,South,182,3.0,5.0,0,0.00,,,-99.99,0.000000,,2013-06-27 06:02:00,
2013-06-26 23:23:00,63.0,-99.9,-100.00,South,181,4.0,6.0,0,0.00,,,0.00,0.000000,,2013-06-27 06:23:00,
2013-06-26 23:34:00,63.0,-99.9,-100.00,South,181,4.0,6.0,0,0.00,,,0.00,0.000000,,2013-06-27 06:34:00,
2013-06-26 23:43:00,63.0,-99.9,-100.00,South,181,4.0,6.0,0,0.00,,,0.00,0.000000,,2013-06-27 06:43:00,
2013-06-26 23:53:00,63.0,-99.9,-100.00,South,181,4.0,6.0,0,0.00,,,0.00,0.000000,,2013-06-27 06:53:00,